sensor_id;sensor_type;location;lat;lon;timestamp;P1;durP1;ratioP1;P2;durP2;ratioP2
35364;SDS011;21464;48.112;11.530;2023-07-31T00:00:40;2.80;;;2.00;;
35364;SDS011;21464;48.112;11.530;2023-07-31T00:03:06;2.30;;;1.98;;
35364;SDS011;21464;48.112;11.530;2023-07-31T00:05:32;1.88;;;1.73;;
35364;SDS011;21464;48.112;11.530;2023-07-31T00:07:58;2.50;;;1.90;;
35364;SDS011;21464;48.112;11.530;2023-07-31T00:10:24;2.33;;;1.92;;
35364;SDS011;21464;48.112;11.530;2023-07-31T00:12:51;3.00;;;2.33;;
35364;SDS011;21464;48.112;11.530;2023-07-31T00:15:17;1.92;;;1.58;;
35364;SDS011;21464;48.112;11.530;2023-07-31T00:17:43;3.03;;;2.10;;
35364;SDS011;21464;48.112;11.530;2023-07-31T00:20:09;2.67;;;1.92;;
35364;SDS011;21464;48.112;11.530;2023-07-31T00:22:36;3.15;;;2.00;;
35364;SDS011;21464;48.112;11.530;2023-07-31T00:25:02;3.75;;;1.88;;
35364;SDS011;21464;48.112;11.530;2023-07-31T00:27:29;3.38;;;1.98;;
35364;SDS011;21464;48.112;11.530;2023-07-31T00:29:56;3.60;;;2.13;;
35364;SDS011;21464;48.112;11.530;2023-07-31T00:32:22;2.47;;;1.95;;
35364;SDS011;21464;48.112;11.530;2023-07-31T00:34:48;2.30;;;2.00;;
35364;SDS011;21464;48.112;11.530;2023-07-31T00:37:14;5.25;;;2.13;;
35364;SDS011;21464;48.112;11.530;2023-07-31T00:39:41;2.33;;;1.70;;
35364;SDS011;21464;48.112;11.530;2023-07-31T00:42:07;3.83;;;2.15;;
35364;SDS011;21464;48.112;11.530;2023-07-31T00:44:33;1.95;;;1.85;;
35364;SDS011;21464;48.112;11.530;2023-07-31T00:47:00;3.47;;;1.90;;
35364;SDS011;21464;48.112;11.530;2023-07-31T00:49:26;4.07;;;1.95;;
35364;SDS011;21464;48.112;11.530;2023-07-31T00:51:53;2.88;;;2.00;;
35364;SDS011;21464;48.112;11.530;2023-07-31T00:54:19;5.35;;;1.90;;
35364;SDS011;21464;48.112;11.530;2023-07-31T00:56:45;3.17;;;1.90;;
35364;SDS011;21464;48.112;11.530;2023-07-31T00:59:14;2.70;;;2.00;;
35364;SDS011;21464;48.112;11.530;2023-07-31T01:01:40;3.38;;;2.10;;
35364;SDS011;21464;48.112;11.530;2023-07-31T01:04:07;2.72;;;2.00;;
35364;SDS011;21464;48.112;11.530;2023-07-31T01:06:37;2.10;;;1.90;;
35364;SDS011;21464;48.112;11.530;2023-07-31T01:11:48;2.90;;;1.77;;
35364;SDS011;21464;48.112;11.530;2023-07-31T01:14:19;2.42;;;1.85;;
35364;SDS011;21464;48.112;11.530;2023-07-31T01:16:45;1.95;;;1.77;;
35364;SDS011;21464;48.112;11.530;2023-07-31T01:19:11;3.97;;;1.90;;
35364;SDS011;21464;48.112;11.530;2023-07-31T01:27:30;3.00;;;2.13;;
35364;SDS011;21464;48.112;11.530;2023-07-31T01:30:00;4.00;;;1.90;;
35364;SDS011;21464;48.112;11.530;2023-07-31T01:32:37;4.57;;;2.20;;
35364;SDS011;21464;48.112;11.530;2023-07-31T01:35:05;2.85;;;1.80;;
35364;SDS011;21464;48.112;11.530;2023-07-31T01:37:32;2.50;;;2.08;;
35364;SDS011;21464;48.112;11.530;2023-07-31T01:39:58;3.63;;;2.00;;
35364;SDS011;21464;48.112;11.530;2023-07-31T01:42:25;2.38;;;1.90;;
35364;SDS011;21464;48.112;11.530;2023-07-31T01:44:51;3.70;;;2.20;;
35364;SDS011;21464;48.112;11.530;2023-07-31T01:47:17;2.63;;;2.25;;
35364;SDS011;21464;48.112;11.530;2023-07-31T01:49:43;4.47;;;2.13;;
35364;SDS011;21464;48.112;11.530;2023-07-31T01:52:09;3.75;;;2.10;;
35364;SDS011;21464;48.112;11.530;2023-07-31T01:54:36;4.22;;;2.03;;
35364;SDS011;21464;48.112;11.530;2023-07-31T01:57:03;2.13;;;1.95;;
35364;SDS011;21464;48.112;11.530;2023-07-31T01:59:29;3.45;;;2.20;;
35364;SDS011;21464;48.112;11.530;2023-07-31T02:01:55;3.92;;;2.15;;
35364;SDS011;21464;48.112;11.530;2023-07-31T02:04:21;2.80;;;2.20;;
35364;SDS011;21464;48.112;11.530;2023-07-31T02:06:47;4.18;;;2.30;;
35364;SDS011;21464;48.112;11.530;2023-07-31T02:09:14;2.35;;;2.05;;
35364;SDS011;21464;48.112;11.530;2023-07-31T02:11:40;3.03;;;2.38;;
35364;SDS011;21464;48.112;11.530;2023-07-31T02:14:06;3.55;;;2.40;;
35364;SDS011;21464;48.112;11.530;2023-07-31T02:16:32;4.32;;;2.38;;
35364;SDS011;21464;48.112;11.530;2023-07-31T02:19:00;3.00;;;2.13;;
35364;SDS011;21464;48.112;11.530;2023-07-31T02:21:26;3.53;;;2.22;;
35364;SDS011;21464;48.112;11.530;2023-07-31T02:23:53;2.42;;;2.05;;
35364;SDS011;21464;48.112;11.530;2023-07-31T02:26:19;3.67;;;2.40;;
35364;SDS011;21464;48.112;11.530;2023-07-31T02:28:45;3.58;;;2.10;;
35364;SDS011;21464;48.112;11.530;2023-07-31T02:31:12;2.97;;;2.30;;
35364;SDS011;21464;48.112;11.530;2023-07-31T02:33:38;2.15;;;2.03;;
35364;SDS011;21464;48.112;11.530;2023-07-31T02:36:04;3.25;;;2.45;;
35364;SDS011;21464;48.112;11.530;2023-07-31T02:38:31;3.45;;;2.40;;
35364;SDS011;21464;48.112;11.530;2023-07-31T02:40:57;4.03;;;2.15;;
35364;SDS011;21464;48.112;11.530;2023-07-31T02:43:23;2.47;;;1.75;;
35364;SDS011;21464;48.112;11.530;2023-07-31T02:45:53;3.47;;;2.15;;
35364;SDS011;21464;48.112;11.530;2023-07-31T02:48:19;2.47;;;2.10;;
35364;SDS011;21464;48.112;11.530;2023-07-31T02:50:47;3.05;;;2.20;;
35364;SDS011;21464;48.112;11.530;2023-07-31T02:53:13;3.28;;;2.03;;
35364;SDS011;21464;48.112;11.530;2023-07-31T02:55:40;4.13;;;2.70;;
35364;SDS011;21464;48.112;11.530;2023-07-31T02:58:07;4.65;;;2.30;;
35364;SDS011;21464;48.112;11.530;2023-07-31T03:00:33;4.78;;;2.72;;
35364;SDS011;21464;48.112;11.530;2023-07-31T03:02:59;3.05;;;2.38;;
35364;SDS011;21464;48.112;11.530;2023-07-31T03:05:25;2.25;;;2.05;;
35364;SDS011;21464;48.112;11.530;2023-07-31T03:07:51;3.83;;;2.42;;
35364;SDS011;21464;48.112;11.530;2023-07-31T03:10:17;2.65;;;2.45;;
35364;SDS011;21464;48.112;11.530;2023-07-31T03:12:46;3.80;;;2.40;;
35364;SDS011;21464;48.112;11.530;2023-07-31T03:15:14;3.97;;;2.78;;
35364;SDS011;21464;48.112;11.530;2023-07-31T03:17:40;4.15;;;3.47;;
35364;SDS011;21464;48.112;11.530;2023-07-31T03:20:06;4.30;;;3.25;;
35364;SDS011;21464;48.112;11.530;2023-07-31T03:22:34;5.70;;;3.30;;
35364;SDS011;21464;48.112;11.530;2023-07-31T03:25:01;3.00;;;2.70;;
35364;SDS011;21464;48.112;11.530;2023-07-31T03:27:28;3.65;;;2.60;;
35364;SDS011;21464;48.112;11.530;2023-07-31T03:29:54;5.93;;;4.18;;
35364;SDS011;21464;48.112;11.530;2023-07-31T03:32:20;7.57;;;4.20;;
35364;SDS011;21464;48.112;11.530;2023-07-31T03:34:47;7.15;;;4.88;;
35364;SDS011;21464;48.112;11.530;2023-07-31T03:37:13;5.97;;;4.10;;
35364;SDS011;21464;48.112;11.530;2023-07-31T03:39:39;6.95;;;5.20;;
35364;SDS011;21464;48.112;11.530;2023-07-31T03:42:06;6.65;;;4.55;;
35364;SDS011;21464;48.112;11.530;2023-07-31T03:44:32;4.70;;;4.20;;
35364;SDS011;21464;48.112;11.530;2023-07-31T03:46:58;3.50;;;2.75;;
35364;SDS011;21464;48.112;11.530;2023-07-31T03:49:25;4.22;;;3.00;;
35364;SDS011;21464;48.112;11.530;2023-07-31T03:51:51;3.65;;;2.55;;
35364;SDS011;21464;48.112;11.530;2023-07-31T03:54:17;3.85;;;3.03;;
35364;SDS011;21464;48.112;11.530;2023-07-31T03:56:43;4.55;;;2.85;;
35364;SDS011;21464;48.112;11.530;2023-07-31T03:59:09;4.88;;;3.25;;
35364;SDS011;21464;48.112;11.530;2023-07-31T04:01:36;6.07;;;4.15;;
35364;SDS011;21464;48.112;11.530;2023-07-31T04:04:02;7.82;;;4.47;;
35364;SDS011;21464;48.112;11.530;2023-07-31T04:06:28;7.32;;;5.50;;
35364;SDS011;21464;48.112;11.530;2023-07-31T04:08:54;8.00;;;6.20;;
35364;SDS011;21464;48.112;11.530;2023-07-31T04:11:20;5.72;;;4.63;;
35364;SDS011;21464;48.112;11.530;2023-07-31T04:13:47;6.85;;;4.50;;
35364;SDS011;21464;48.112;11.530;2023-07-31T04:16:13;6.28;;;4.75;;
35364;SDS011;21464;48.112;11.530;2023-07-31T04:18:39;5.15;;;4.20;;
35364;SDS011;21464;48.112;11.530;2023-07-31T04:21:05;6.53;;;4.28;;
35364;SDS011;21464;48.112;11.530;2023-07-31T04:23:31;27.85;;;19.35;;
35364;SDS011;21464;48.112;11.530;2023-07-31T04:25:58;12.68;;;9.93;;
35364;SDS011;21464;48.112;11.530;2023-07-31T04:28:24;8.70;;;6.93;;
35364;SDS011;21464;48.112;11.530;2023-07-31T04:30:52;7.00;;;5.25;;
35364;SDS011;21464;48.112;11.530;2023-07-31T04:33:19;5.60;;;4.50;;
35364;SDS011;21464;48.112;11.530;2023-07-31T04:35:52;9.02;;;5.85;;
35364;SDS011;21464;48.112;11.530;2023-07-31T04:38:22;4.90;;;4.35;;
35364;SDS011;21464;48.112;11.530;2023-07-31T04:40:48;5.80;;;4.57;;
35364;SDS011;21464;48.112;11.530;2023-07-31T04:43:14;6.43;;;4.47;;
35364;SDS011;21464;48.112;11.530;2023-07-31T04:45:47;5.78;;;4.07;;
35364;SDS011;21464;48.112;11.530;2023-07-31T04:48:14;7.20;;;5.70;;
35364;SDS011;21464;48.112;11.530;2023-07-31T04:50:40;6.00;;;5.40;;
35364;SDS011;21464;48.112;11.530;2023-07-31T04:53:06;6.82;;;4.93;;
35364;SDS011;21464;48.112;11.530;2023-07-31T04:55:32;4.70;;;4.18;;
35364;SDS011;21464;48.112;11.530;2023-07-31T04:57:59;4.85;;;3.78;;
35364;SDS011;21464;48.112;11.530;2023-07-31T05:00:25;4.93;;;3.65;;
35364;SDS011;21464;48.112;11.530;2023-07-31T05:02:51;3.88;;;3.40;;
35364;SDS011;21464;48.112;11.530;2023-07-31T05:05:17;4.25;;;3.22;;
35364;SDS011;21464;48.112;11.530;2023-07-31T05:07:44;4.85;;;3.60;;
35364;SDS011;21464;48.112;11.530;2023-07-31T05:10:10;2.95;;;2.70;;
35364;SDS011;21464;48.112;11.530;2023-07-31T05:12:36;4.68;;;3.30;;
35364;SDS011;21464;48.112;11.530;2023-07-31T05:15:02;3.40;;;3.10;;
35364;SDS011;21464;48.112;11.530;2023-07-31T05:17:30;3.35;;;2.80;;
35364;SDS011;21464;48.112;11.530;2023-07-31T05:19:56;2.70;;;2.50;;
35364;SDS011;21464;48.112;11.530;2023-07-31T05:22:22;5.97;;;2.90;;
35364;SDS011;21464;48.112;11.530;2023-07-31T05:24:48;3.15;;;2.85;;
35364;SDS011;21464;48.112;11.530;2023-07-31T05:27:14;6.25;;;5.65;;
35364;SDS011;21464;48.112;11.530;2023-07-31T05:29:44;4.53;;;3.67;;
35364;SDS011;21464;48.112;11.530;2023-07-31T05:32:11;3.90;;;2.83;;
35364;SDS011;21464;48.112;11.530;2023-07-31T05:34:37;4.20;;;3.05;;
35364;SDS011;21464;48.112;11.530;2023-07-31T05:37:04;4.70;;;2.90;;
35364;SDS011;21464;48.112;11.530;2023-07-31T05:39:31;4.47;;;2.33;;
35364;SDS011;21464;48.112;11.530;2023-07-31T05:41:58;5.00;;;2.50;;
35364;SDS011;21464;48.112;11.530;2023-07-31T05:44:24;5.45;;;2.92;;
35364;SDS011;21464;48.112;11.530;2023-07-31T05:46:50;3.85;;;2.50;;
35364;SDS011;21464;48.112;11.530;2023-07-31T05:49:16;2.58;;;2.38;;
35364;SDS011;21464;48.112;11.530;2023-07-31T05:51:42;6.93;;;5.22;;
35364;SDS011;21464;48.112;11.530;2023-07-31T05:54:09;7.20;;;3.22;;
35364;SDS011;21464;48.112;11.530;2023-07-31T05:56:35;3.45;;;2.55;;
35364;SDS011;21464;48.112;11.530;2023-07-31T05:59:01;3.13;;;2.60;;
35364;SDS011;21464;48.112;11.530;2023-07-31T06:01:28;2.90;;;2.00;;
35364;SDS011;21464;48.112;11.530;2023-07-31T06:03:54;3.78;;;3.15;;
35364;SDS011;21464;48.112;11.530;2023-07-31T06:06:21;3.60;;;2.60;;
35364;SDS011;21464;48.112;11.530;2023-07-31T06:08:47;3.53;;;2.78;;
35364;SDS011;21464;48.112;11.530;2023-07-31T06:11:13;4.57;;;2.22;;
35364;SDS011;21464;48.112;11.530;2023-07-31T06:13:39;3.90;;;2.85;;
35364;SDS011;21464;48.112;11.530;2023-07-31T06:16:05;4.65;;;2.55;;
35364;SDS011;21464;48.112;11.530;2023-07-31T06:18:32;4.78;;;2.67;;
35364;SDS011;21464;48.112;11.530;2023-07-31T06:20:58;3.28;;;2.10;;
35364;SDS011;21464;48.112;11.530;2023-07-31T06:23:25;3.17;;;2.53;;
35364;SDS011;21464;48.112;11.530;2023-07-31T06:25:52;3.45;;;2.40;;
35364;SDS011;21464;48.112;11.530;2023-07-31T06:28:18;4.45;;;2.20;;
35364;SDS011;21464;48.112;11.530;2023-07-31T06:30:44;2.65;;;1.98;;
35364;SDS011;21464;48.112;11.530;2023-07-31T06:33:10;3.40;;;2.35;;
35364;SDS011;21464;48.112;11.530;2023-07-31T06:35:37;3.97;;;2.30;;
35364;SDS011;21464;48.112;11.530;2023-07-31T06:38:03;2.45;;;1.95;;
35364;SDS011;21464;48.112;11.530;2023-07-31T06:40:29;2.58;;;2.10;;
35364;SDS011;21464;48.112;11.530;2023-07-31T06:42:56;2.80;;;2.28;;
35364;SDS011;21464;48.112;11.530;2023-07-31T06:45:22;2.60;;;2.40;;
35364;SDS011;21464;48.112;11.530;2023-07-31T06:47:48;4.75;;;2.70;;
35364;SDS011;21464;48.112;11.530;2023-07-31T06:50:14;3.28;;;2.25;;
35364;SDS011;21464;48.112;11.530;2023-07-31T06:52:40;3.20;;;2.33;;
35364;SDS011;21464;48.112;11.530;2023-07-31T06:55:16;1.80;;;1.70;;
35364;SDS011;21464;48.112;11.530;2023-07-31T06:57:47;2.25;;;2.05;;
35364;SDS011;21464;48.112;11.530;2023-07-31T07:00:14;3.38;;;2.40;;
35364;SDS011;21464;48.112;11.530;2023-07-31T07:02:41;2.45;;;2.17;;
35364;SDS011;21464;48.112;11.530;2023-07-31T07:05:08;3.58;;;2.35;;
35364;SDS011;21464;48.112;11.530;2023-07-31T07:07:34;2.63;;;2.17;;
35364;SDS011;21464;48.112;11.530;2023-07-31T07:10:00;6.00;;;2.33;;
35364;SDS011;21464;48.112;11.530;2023-07-31T07:12:30;3.22;;;1.83;;
35364;SDS011;21464;48.112;11.530;2023-07-31T07:14:57;2.55;;;1.80;;
35364;SDS011;21464;48.112;11.530;2023-07-31T07:17:24;2.08;;;1.77;;
35364;SDS011;21464;48.112;11.530;2023-07-31T07:19:50;3.95;;;2.10;;
35364;SDS011;21464;48.112;11.530;2023-07-31T07:22:17;1.88;;;1.63;;
35364;SDS011;21464;48.112;11.530;2023-07-31T07:24:43;3.58;;;2.00;;
35364;SDS011;21464;48.112;11.530;2023-07-31T07:27:10;3.25;;;2.10;;
35364;SDS011;21464;48.112;11.530;2023-07-31T07:29:37;2.90;;;1.88;;
35364;SDS011;21464;48.112;11.530;2023-07-31T07:32:04;4.65;;;2.20;;
35364;SDS011;21464;48.112;11.530;2023-07-31T07:34:30;3.35;;;1.92;;
35364;SDS011;21464;48.112;11.530;2023-07-31T07:36:57;3.80;;;1.92;;
35364;SDS011;21464;48.112;11.530;2023-07-31T07:39:23;3.80;;;1.90;;
35364;SDS011;21464;48.112;11.530;2023-07-31T07:41:49;4.03;;;1.85;;
35364;SDS011;21464;48.112;11.530;2023-07-31T07:44:15;4.22;;;2.20;;
35364;SDS011;21464;48.112;11.530;2023-07-31T07:46:42;3.33;;;1.90;;
35364;SDS011;21464;48.112;11.530;2023-07-31T07:49:08;2.45;;;1.85;;
35364;SDS011;21464;48.112;11.530;2023-07-31T07:51:34;2.70;;;1.95;;
35364;SDS011;21464;48.112;11.530;2023-07-31T07:54:01;2.50;;;2.05;;
35364;SDS011;21464;48.112;11.530;2023-07-31T07:56:27;2.65;;;1.90;;
35364;SDS011;21464;48.112;11.530;2023-07-31T07:58:54;3.65;;;1.90;;
35364;SDS011;21464;48.112;11.530;2023-07-31T08:01:20;2.25;;;1.63;;
35364;SDS011;21464;48.112;11.530;2023-07-31T08:03:47;3.30;;;2.40;;
35364;SDS011;21464;48.112;11.530;2023-07-31T08:06:14;2.85;;;2.03;;
35364;SDS011;21464;48.112;11.530;2023-07-31T08:08:40;3.20;;;2.08;;
35364;SDS011;21464;48.112;11.530;2023-07-31T08:11:06;2.33;;;1.83;;
35364;SDS011;21464;48.112;11.530;2023-07-31T08:13:33;4.13;;;2.15;;
35364;SDS011;21464;48.112;11.530;2023-07-31T08:15:59;2.55;;;1.92;;
35364;SDS011;21464;48.112;11.530;2023-07-31T08:18:25;2.08;;;1.70;;
35364;SDS011;21464;48.112;11.530;2023-07-31T08:20:51;6.20;;;2.13;;
35364;SDS011;21464;48.112;11.530;2023-07-31T08:23:17;3.00;;;2.22;;
35364;SDS011;21464;48.112;11.530;2023-07-31T08:25:44;2.80;;;1.98;;
35364;SDS011;21464;48.112;11.530;2023-07-31T08:28:10;2.83;;;2.00;;
35364;SDS011;21464;48.112;11.530;2023-07-31T08:30:37;2.75;;;1.80;;
35364;SDS011;21464;48.112;11.530;2023-07-31T08:33:03;2.45;;;1.90;;
35364;SDS011;21464;48.112;11.530;2023-07-31T08:35:29;4.35;;;2.20;;
35364;SDS011;21464;48.112;11.530;2023-07-31T08:37:55;4.28;;;2.20;;
35364;SDS011;21464;48.112;11.530;2023-07-31T08:40:21;1.80;;;1.60;;
35364;SDS011;21464;48.112;11.530;2023-07-31T08:42:49;4.57;;;2.00;;
35364;SDS011;21464;48.112;11.530;2023-07-31T08:45:20;4.40;;;1.85;;
35364;SDS011;21464;48.112;11.530;2023-07-31T08:47:50;2.70;;;2.08;;
35364;SDS011;21464;48.112;11.530;2023-07-31T08:50:19;2.38;;;1.95;;
35364;SDS011;21464;48.112;11.530;2023-07-31T08:52:47;4.68;;;2.20;;
35364;SDS011;21464;48.112;11.530;2023-07-31T08:55:14;2.70;;;1.90;;
35364;SDS011;21464;48.112;11.530;2023-07-31T08:57:40;2.22;;;1.90;;
35364;SDS011;21464;48.112;11.530;2023-07-31T09:00:08;3.08;;;1.92;;
35364;SDS011;21464;48.112;11.530;2023-07-31T09:02:46;3.45;;;2.10;;
35364;SDS011;21464;48.112;11.530;2023-07-31T09:05:18;2.67;;;1.80;;
35364;SDS011;21464;48.112;11.530;2023-07-31T09:07:45;2.47;;;1.70;;
35364;SDS011;21464;48.112;11.530;2023-07-31T09:10:13;1.98;;;1.88;;
35364;SDS011;21464;48.112;11.530;2023-07-31T09:12:39;3.53;;;1.88;;
35364;SDS011;21464;48.112;11.530;2023-07-31T09:15:07;3.33;;;2.20;;
35364;SDS011;21464;48.112;11.530;2023-07-31T09:17:36;1.92;;;1.55;;
35364;SDS011;21464;48.112;11.530;2023-07-31T09:20:37;2.00;;;1.70;;
35364;SDS011;21464;48.112;11.530;2023-07-31T09:22:56;2.67;;;1.75;;
35364;SDS011;21464;48.112;11.530;2023-07-31T09:25:23;3.30;;;2.20;;
35364;SDS011;21464;48.112;11.530;2023-07-31T09:30:20;2.38;;;1.90;;
35364;SDS011;21464;48.112;11.530;2023-07-31T09:32:48;2.53;;;1.50;;
35364;SDS011;21464;48.112;11.530;2023-07-31T09:37:41;3.45;;;1.83;;
35364;SDS011;21464;48.112;11.530;2023-07-31T09:40:07;2.45;;;1.60;;
35364;SDS011;21464;48.112;11.530;2023-07-31T09:42:34;2.67;;;2.10;;
35364;SDS011;21464;48.112;11.530;2023-07-31T09:45:09;3.13;;;2.10;;
35364;SDS011;21464;48.112;11.530;2023-07-31T09:47:36;4.10;;;1.92;;
35364;SDS011;21464;48.112;11.530;2023-07-31T09:50:06;3.75;;;2.10;;
35364;SDS011;21464;48.112;11.530;2023-07-31T09:52:33;3.20;;;1.90;;
35364;SDS011;21464;48.112;11.530;2023-07-31T09:54:59;2.45;;;2.20;;
35364;SDS011;21464;48.112;11.530;2023-07-31T09:57:25;4.55;;;2.08;;
35364;SDS011;21464;48.112;11.530;2023-07-31T09:59:52;3.80;;;2.00;;
35364;SDS011;21464;48.112;11.530;2023-07-31T10:02:20;2.58;;;1.90;;
35364;SDS011;21464;48.112;11.530;2023-07-31T10:04:49;2.60;;;1.90;;
35364;SDS011;21464;48.112;11.530;2023-07-31T10:07:17;2.65;;;2.35;;
35364;SDS011;21464;48.112;11.530;2023-07-31T10:09:44;2.20;;;2.00;;
35364;SDS011;21464;48.112;11.530;2023-07-31T10:12:12;2.35;;;1.98;;
35364;SDS011;21464;48.112;11.530;2023-07-31T10:14:41;2.45;;;1.80;;
35364;SDS011;21464;48.112;11.530;2023-07-31T10:17:07;2.58;;;1.92;;
35364;SDS011;21464;48.112;11.530;2023-07-31T10:19:34;2.80;;;2.15;;
35364;SDS011;21464;48.112;11.530;2023-07-31T10:22:01;2.80;;;2.15;;
35364;SDS011;21464;48.112;11.530;2023-07-31T10:24:29;2.45;;;1.80;;
35364;SDS011;21464;48.112;11.530;2023-07-31T10:26:57;2.13;;;1.92;;
35364;SDS011;21464;48.112;11.530;2023-07-31T10:29:26;2.85;;;1.98;;
35364;SDS011;21464;48.112;11.530;2023-07-31T10:31:53;3.13;;;2.03;;
35364;SDS011;21464;48.112;11.530;2023-07-31T10:34:20;3.28;;;2.22;;
35364;SDS011;21464;48.112;11.530;2023-07-31T10:36:46;3.35;;;2.10;;
35364;SDS011;21464;48.112;11.530;2023-07-31T10:42:14;2.92;;;2.13;;
35364;SDS011;21464;48.112;11.530;2023-07-31T10:44:44;3.85;;;1.90;;
35364;SDS011;21464;48.112;11.530;2023-07-31T10:47:13;3.67;;;2.05;;
35364;SDS011;21464;48.112;11.530;2023-07-31T10:49:40;3.22;;;2.00;;
35364;SDS011;21464;48.112;11.530;2023-07-31T10:52:10;2.53;;;1.88;;
35364;SDS011;21464;48.112;11.530;2023-07-31T10:54:38;2.67;;;1.90;;
35364;SDS011;21464;48.112;11.530;2023-07-31T10:57:18;2.33;;;2.13;;
35364;SDS011;21464;48.112;11.530;2023-07-31T10:59:48;3.15;;;1.90;;
35364;SDS011;21464;48.112;11.530;2023-07-31T11:02:25;2.00;;;1.80;;
35364;SDS011;21464;48.112;11.530;2023-07-31T11:05:10;3.72;;;1.88;;
35364;SDS011;21464;48.112;11.530;2023-07-31T11:07:46;2.90;;;1.83;;
35364;SDS011;21464;48.112;11.530;2023-07-31T11:10:18;3.13;;;1.90;;
35364;SDS011;21464;48.112;11.530;2023-07-31T11:12:45;2.33;;;1.98;;
35364;SDS011;21464;48.112;11.530;2023-07-31T11:15:12;3.92;;;2.03;;
35364;SDS011;21464;48.112;11.530;2023-07-31T11:17:39;2.40;;;1.90;;
35364;SDS011;21464;48.112;11.530;2023-07-31T11:20:06;2.38;;;2.00;;
35364;SDS011;21464;48.112;11.530;2023-07-31T11:22:36;3.67;;;2.00;;
35364;SDS011;21464;48.112;11.530;2023-07-31T11:25:03;2.13;;;1.95;;
35364;SDS011;21464;48.112;11.530;2023-07-31T11:27:30;1.90;;;1.80;;
35364;SDS011;21464;48.112;11.530;2023-07-31T11:30:05;1.80;;;1.70;;
35364;SDS011;21464;48.112;11.530;2023-07-31T11:32:33;4.03;;;1.85;;
35364;SDS011;21464;48.112;11.530;2023-07-31T11:34:59;3.00;;;2.10;;
35364;SDS011;21464;48.112;11.530;2023-07-31T11:37:38;3.70;;;2.00;;
35364;SDS011;21464;48.112;11.530;2023-07-31T11:40:08;2.60;;;2.30;;
35364;SDS011;21464;48.112;11.530;2023-07-31T11:42:34;2.38;;;2.15;;
35364;SDS011;21464;48.112;11.530;2023-07-31T11:45:04;3.92;;;2.10;;
35364;SDS011;21464;48.112;11.530;2023-07-31T11:47:34;4.13;;;2.15;;
35364;SDS011;21464;48.112;11.530;2023-07-31T11:50:02;3.30;;;2.20;;
35364;SDS011;21464;48.112;11.530;2023-07-31T11:52:30;4.57;;;2.33;;
35364;SDS011;21464;48.112;11.530;2023-07-31T11:54:59;5.55;;;3.88;;
35364;SDS011;21464;48.112;11.530;2023-07-31T11:57:25;3.20;;;2.30;;
35364;SDS011;21464;48.112;11.530;2023-07-31T11:59:52;4.15;;;2.00;;
35364;SDS011;21464;48.112;11.530;2023-07-31T12:02:18;3.50;;;2.10;;
35364;SDS011;21464;48.112;11.530;2023-07-31T12:04:46;1.95;;;1.80;;
35364;SDS011;21464;48.112;11.530;2023-07-31T12:07:12;3.03;;;2.25;;
35364;SDS011;21464;48.112;11.530;2023-07-31T12:09:38;2.75;;;2.28;;
35364;SDS011;21464;48.112;11.530;2023-07-31T12:12:23;2.65;;;1.80;;
35364;SDS011;21464;48.112;11.530;2023-07-31T12:14:50;3.90;;;2.10;;
35364;SDS011;21464;48.112;11.530;2023-07-31T12:17:17;2.28;;;2.08;;
35364;SDS011;21464;48.112;11.530;2023-07-31T12:19:48;2.10;;;1.90;;
35364;SDS011;21464;48.112;11.530;2023-07-31T12:22:15;2.20;;;2.00;;
35364;SDS011;21464;48.112;11.530;2023-07-31T12:24:42;2.50;;;1.98;;
35364;SDS011;21464;48.112;11.530;2023-07-31T12:27:13;2.25;;;1.98;;
35364;SDS011;21464;48.112;11.530;2023-07-31T12:29:41;3.63;;;2.17;;
35364;SDS011;21464;48.112;11.530;2023-07-31T12:32:23;2.63;;;1.88;;
35364;SDS011;21464;48.112;11.530;2023-07-31T12:34:51;3.85;;;1.73;;
35364;SDS011;21464;48.112;11.530;2023-07-31T12:37:17;2.13;;;1.92;;
35364;SDS011;21464;48.112;11.530;2023-07-31T12:39:43;1.70;;;1.60;;
35364;SDS011;21464;48.112;11.530;2023-07-31T12:42:09;2.17;;;1.85;;
35364;SDS011;21464;48.112;11.530;2023-07-31T12:44:35;2.50;;;2.00;;
35364;SDS011;21464;48.112;11.530;2023-07-31T12:47:02;2.38;;;1.90;;
35364;SDS011;21464;48.112;11.530;2023-07-31T12:49:29;3.38;;;2.05;;
35364;SDS011;21464;48.112;11.530;2023-07-31T12:51:56;2.22;;;2.00;;
35364;SDS011;21464;48.112;11.530;2023-07-31T12:54:22;2.00;;;1.80;;
35364;SDS011;21464;48.112;11.530;2023-07-31T12:56:48;2.10;;;1.67;;
35364;SDS011;21464;48.112;11.530;2023-07-31T12:59:14;2.70;;;1.80;;
35364;SDS011;21464;48.112;11.530;2023-07-31T13:01:40;2.08;;;1.88;;
35364;SDS011;21464;48.112;11.530;2023-07-31T13:04:07;2.22;;;1.85;;
35364;SDS011;21464;48.112;11.530;2023-07-31T13:06:34;2.28;;;1.83;;
35364;SDS011;21464;48.112;11.530;2023-07-31T13:09:00;2.65;;;1.90;;
35364;SDS011;21464;48.112;11.530;2023-07-31T13:11:26;2.00;;;1.60;;
35364;SDS011;21464;48.112;11.530;2023-07-31T13:13:53;3.72;;;2.05;;
35364;SDS011;21464;48.112;11.530;2023-07-31T13:16:19;2.45;;;1.88;;
35364;SDS011;21464;48.112;11.530;2023-07-31T13:18:45;2.20;;;1.77;;
35364;SDS011;21464;48.112;11.530;2023-07-31T13:21:11;2.08;;;1.70;;
35364;SDS011;21464;48.112;11.530;2023-07-31T13:23:37;1.75;;;1.58;;
35364;SDS011;21464;48.112;11.530;2023-07-31T13:26:04;2.22;;;1.73;;
35364;SDS011;21464;48.112;11.530;2023-07-31T13:28:30;1.90;;;1.73;;
35364;SDS011;21464;48.112;11.530;2023-07-31T13:30:56;5.88;;;1.95;;
35364;SDS011;21464;48.112;11.530;2023-07-31T13:33:22;2.60;;;1.83;;
35364;SDS011;21464;48.112;11.530;2023-07-31T13:35:49;1.85;;;1.75;;
35364;SDS011;21464;48.112;11.530;2023-07-31T13:38:15;2.53;;;2.00;;
35364;SDS011;21464;48.112;11.530;2023-07-31T13:40:41;2.45;;;1.65;;
35364;SDS011;21464;48.112;11.530;2023-07-31T13:43:08;3.50;;;1.70;;
35364;SDS011;21464;48.112;11.530;2023-07-31T13:45:34;1.73;;;1.63;;
35364;SDS011;21464;48.112;11.530;2023-07-31T13:48:00;1.70;;;1.60;;
35364;SDS011;21464;48.112;11.530;2023-07-31T13:50:27;2.90;;;1.85;;
35364;SDS011;21464;48.112;11.530;2023-07-31T13:52:53;3.03;;;1.77;;
35364;SDS011;21464;48.112;11.530;2023-07-31T13:55:19;1.70;;;1.60;;
35364;SDS011;21464;48.112;11.530;2023-07-31T13:57:45;2.30;;;1.90;;
35364;SDS011;21464;48.112;11.530;2023-07-31T14:00:13;2.33;;;1.90;;
35364;SDS011;21464;48.112;11.530;2023-07-31T14:02:40;3.45;;;1.77;;
35364;SDS011;21464;48.112;11.530;2023-07-31T14:05:06;2.50;;;1.88;;
35364;SDS011;21464;48.112;11.530;2023-07-31T14:07:35;1.90;;;1.80;;
35364;SDS011;21464;48.112;11.530;2023-07-31T14:10:01;2.97;;;1.30;;
35364;SDS011;21464;48.112;11.530;2023-07-31T14:12:29;1.92;;;1.40;;
35364;SDS011;21464;48.112;11.530;2023-07-31T14:14:56;1.85;;;1.65;;
35364;SDS011;21464;48.112;11.530;2023-07-31T14:17:22;2.70;;;1.73;;
35364;SDS011;21464;48.112;11.530;2023-07-31T14:19:48;2.30;;;2.10;;
35364;SDS011;21464;48.112;11.530;2023-07-31T14:22:26;2.28;;;2.08;;
35364;SDS011;21464;48.112;11.530;2023-07-31T14:24:54;2.20;;;2.00;;
35364;SDS011;21464;48.112;11.530;2023-07-31T14:27:20;1.50;;;1.40;;
35364;SDS011;21464;48.112;11.530;2023-07-31T14:29:46;1.80;;;1.70;;
35364;SDS011;21464;48.112;11.530;2023-07-31T14:32:12;3.22;;;1.70;;
35364;SDS011;21464;48.112;11.530;2023-07-31T14:34:39;1.95;;;1.63;;
35364;SDS011;21464;48.112;11.530;2023-07-31T14:37:05;3.00;;;1.95;;
35364;SDS011;21464;48.112;11.530;2023-07-31T14:39:31;2.30;;;1.90;;
35364;SDS011;21464;48.112;11.530;2023-07-31T14:41:57;2.78;;;1.75;;
35364;SDS011;21464;48.112;11.530;2023-07-31T14:44:24;2.50;;;1.50;;
35364;SDS011;21464;48.112;11.530;2023-07-31T14:46:50;4.20;;;1.83;;
35364;SDS011;21464;48.112;11.530;2023-07-31T14:49:16;3.78;;;2.08;;